createdAt,value
2023-03-11T00:00:13.145Z,-6.16
2023-03-11T00:02:41.107Z,-6.17
2023-03-11T00:05:08.982Z,-6.36
2023-03-11T00:07:37.724Z,-6.12
2023-03-11T00:10:04.835Z,-6.11
2023-03-11T00:12:31.618Z,-6.11
2023-03-11T00:14:58.392Z,-6.12
2023-03-11T00:17:25.205Z,-6.13
2023-03-11T00:19:52.003Z,-6.13
2023-03-11T00:22:18.802Z,-6.15
2023-03-11T00:24:45.615Z,-6.14
2023-03-11T00:27:12.311Z,-6.09
2023-03-11T00:29:39.081Z,-6.04
2023-03-11T00:32:06.039Z,-6.06
2023-03-11T00:34:32.868Z,-6.11
2023-03-11T00:36:59.578Z,-6.08
2023-03-11T00:39:26.344Z,-6.04
2023-03-11T00:41:53.840Z,-6.04
2023-03-11T00:44:20.576Z,-6.04
2023-03-11T00:46:47.493Z,-6.02
2023-03-11T00:49:14.520Z,-6.01
2023-03-11T00:51:41.252Z,-6.02
2023-03-11T00:54:08.050Z,-6.06
2023-03-11T00:56:34.732Z,-6.04
2023-03-11T00:59:01.472Z,-6.03
2023-03-11T01:01:28.284Z,-6.00
2023-03-11T01:03:55.132Z,-6.00
2023-03-11T01:06:22.532Z,-6.03
2023-03-11T01:08:49.323Z,-6.09
2023-03-11T01:11:16.080Z,-6.04
2023-03-11T01:13:42.843Z,-6.06
2023-03-11T01:16:09.647Z,-6.20
2023-03-11T01:18:36.549Z,-6.20
2023-03-11T01:21:03.597Z,-6.01
2023-03-11T01:23:32.544Z,-6.03
2023-03-11T01:25:59.609Z,-6.11
2023-03-11T01:28:26.345Z,-6.04
2023-03-11T01:30:53.229Z,-6.06
2023-03-11T01:33:20.091Z,-6.09
2023-03-11T01:35:47.128Z,-6.04
2023-03-11T01:38:14.064Z,-6.05
2023-03-11T01:40:46.509Z,-6.07
2023-03-11T01:43:40.990Z,-6.04
2023-03-11T01:46:16.930Z,-6.02
2023-03-11T01:48:49.571Z,-6.00
2023-03-11T01:51:24.326Z,-6.05
2023-03-11T01:53:52.702Z,-6.13
2023-03-11T01:56:20.184Z,-6.08
2023-03-11T01:58:50.166Z,-6.08
2023-03-11T02:01:16.998Z,-6.08
2023-03-11T02:03:43.838Z,-6.08
2023-03-11T02:06:15.131Z,-6.11
2023-03-11T02:08:42.715Z,-6.13
2023-03-11T02:11:15.758Z,-6.15
2023-03-11T02:13:44.365Z,-6.15
2023-03-11T02:16:11.960Z,-6.14
2023-03-11T02:18:38.838Z,-6.13
2023-03-11T02:21:20.328Z,-6.18
2023-03-11T02:24:16.491Z,-6.11
2023-03-11T02:26:55.211Z,-6.14
2023-03-11T02:29:23.756Z,-6.11
2023-03-11T02:31:51.122Z,-6.14
2023-03-11T02:34:27.116Z,-6.18
2023-03-11T02:36:54.038Z,-6.19
2023-03-11T02:39:37.359Z,-6.20
2023-03-11T02:42:33.561Z,-6.21
2023-03-11T02:45:09.494Z,-6.25
2023-03-11T02:47:39.167Z,-6.21
2023-03-11T02:50:09.463Z,-6.18
2023-03-11T02:52:36.934Z,-6.27
2023-03-11T02:55:04.376Z,-6.18
2023-03-11T02:57:31.258Z,-6.17
2023-03-11T02:59:58.060Z,-6.14
2023-03-11T03:02:24.771Z,-6.11
2023-03-11T03:04:51.477Z,-6.12
2023-03-11T03:07:18.215Z,-6.13
2023-03-11T03:09:45.035Z,-6.11
2023-03-11T03:12:11.958Z,-6.19
2023-03-11T03:14:38.654Z,-6.15
2023-03-11T03:17:05.655Z,-6.13
2023-03-11T03:19:32.439Z,-6.13
2023-03-11T03:21:59.180Z,-6.13
2023-03-11T03:24:25.916Z,-6.16
2023-03-11T03:26:52.694Z,-6.19
2023-03-11T03:29:19.487Z,-6.20
2023-03-11T03:31:46.679Z,-6.22
2023-03-11T03:34:13.452Z,-6.20
2023-03-11T03:36:40.186Z,-6.19
2023-03-11T03:39:06.906Z,-6.22
2023-03-11T03:41:33.789Z,-6.19
2023-03-11T03:44:00.883Z,-6.20
2023-03-11T03:46:27.657Z,-6.39
2023-03-11T03:48:54.453Z,-6.21
2023-03-11T03:51:21.269Z,-6.21
2023-03-11T03:53:48.052Z,-6.27
2023-03-11T03:56:17.370Z,-6.34
2023-03-11T03:58:44.424Z,-6.36
2023-03-11T04:01:12.157Z,-6.37
2023-03-11T04:03:39.647Z,-6.34
2023-03-11T04:06:27.414Z,-6.32
2023-03-11T04:08:55.069Z,-6.30
2023-03-11T04:11:22.402Z,-6.31
2023-03-11T04:13:49.765Z,-6.30
2023-03-11T04:16:20.689Z,-6.25
2023-03-11T04:18:48.171Z,-6.20
2023-03-11T04:21:15.696Z,-6.16
2023-03-11T04:23:42.647Z,-6.14
2023-03-11T04:26:09.470Z,-6.13
2023-03-11T04:28:36.202Z,-6.23
2023-03-11T04:31:03.125Z,-6.04
2023-03-11T04:33:30.088Z,-6.04
2023-03-11T04:35:57.556Z,-6.04
2023-03-11T04:38:24.414Z,-6.01
2023-03-11T04:40:51.256Z,-5.98
2023-03-11T04:43:18.002Z,-5.94
2023-03-11T04:45:44.741Z,-5.94
2023-03-11T04:48:11.495Z,-5.90
2023-03-11T04:50:38.301Z,-5.84
2023-03-11T04:53:05.061Z,-5.80
2023-03-11T04:55:33.375Z,-5.74
2023-03-11T04:58:00.154Z,-5.72
2023-03-11T05:00:26.963Z,-5.68
2023-03-11T05:02:53.805Z,-5.63
2023-03-11T05:05:20.669Z,-5.59
2023-03-11T05:07:48.199Z,-5.54
2023-03-11T05:10:15.207Z,-5.47
2023-03-11T05:12:41.960Z,-5.42
2023-03-11T05:15:08.909Z,-5.41
2023-03-11T05:17:35.632Z,-5.40
2023-03-11T05:20:02.457Z,-5.37
2023-03-11T05:22:29.793Z,-5.33
2023-03-11T05:24:56.560Z,-5.32
2023-03-11T05:27:23.345Z,-5.35
2023-03-11T05:29:50.117Z,-5.30
2023-03-11T05:32:17.025Z,-5.34
2023-03-11T05:34:43.782Z,-5.15
2023-03-11T05:37:10.522Z,-5.10
2023-03-11T05:39:37.915Z,-5.20
2023-03-11T05:42:05.860Z,-4.94
2023-03-11T05:44:33.402Z,-4.89
2023-03-11T05:47:01.037Z,-4.85
2023-03-11T05:49:28.245Z,-4.88
2023-03-11T05:51:58.058Z,-4.87
2023-03-11T05:54:25.639Z,-4.83
2023-03-11T05:56:52.424Z,-4.82
2023-03-11T05:59:19.513Z,-4.89
2023-03-11T06:01:46.382Z,-4.88
2023-03-11T06:04:13.661Z,-4.90
2023-03-11T06:06:41.649Z,-4.78
2023-03-11T06:09:13.490Z,-4.70
2023-03-11T06:11:40.249Z,-4.59
2023-03-11T06:14:07.081Z,-4.58
2023-03-11T06:16:33.856Z,-4.55
2023-03-11T06:19:00.999Z,-4.45
2023-03-11T06:21:28.189Z,-4.38
2023-03-11T06:23:55.248Z,-4.34
2023-03-11T06:26:23.429Z,-4.35
2023-03-11T06:28:51.884Z,-4.30
2023-03-11T06:31:27.296Z,-4.23
2023-03-11T06:33:56.100Z,-4.17
2023-03-11T06:36:23.697Z,-4.18
2023-03-11T06:38:53.129Z,-4.20
2023-03-11T06:41:20.064Z,-4.11
2023-03-11T06:43:46.911Z,-4.05
2023-03-11T06:46:17.387Z,-4.04
2023-03-11T06:48:45.910Z,-4.11
2023-03-11T06:51:13.139Z,-4.13
2023-03-11T06:53:40.078Z,-4.31
2023-03-11T06:56:08.343Z,-4.16
2023-03-11T06:58:37.568Z,-4.08
2023-03-11T07:01:10.512Z,-3.96
2023-03-11T07:03:37.700Z,-3.98
2023-03-11T07:06:06.701Z,-3.92
2023-03-11T07:08:33.680Z,-3.84
2023-03-11T07:11:06.292Z,-3.88
2023-03-11T07:13:33.536Z,-4.00
2023-03-11T07:16:23.679Z,-4.03
2023-03-11T07:18:51.976Z,-4.04
2023-03-11T07:21:21.266Z,-4.03
2023-03-11T07:23:51.819Z,-3.97
2023-03-11T07:26:18.750Z,-3.93
2023-03-11T07:28:45.845Z,-3.91
2023-03-11T07:31:18.620Z,-3.87
2023-03-11T07:33:45.685Z,-4.02
2023-03-11T07:36:15.147Z,-3.83
2023-03-11T07:38:42.421Z,-3.86
2023-03-11T07:41:14.184Z,-3.94
2023-03-11T07:43:42.779Z,-3.96
2023-03-11T07:46:16.134Z,-4.04
2023-03-11T07:48:43.049Z,-4.18
2023-03-11T07:51:14.645Z,-4.02
2023-03-11T07:53:41.878Z,-3.95
2023-03-11T07:56:11.113Z,-3.93
2023-03-11T07:58:38.408Z,-4.05
2023-03-11T08:01:11.794Z,-3.82
2023-03-11T08:03:39.217Z,-3.76
2023-03-11T08:06:33.500Z,-3.61
2023-03-11T08:09:02.219Z,-3.57
2023-03-11T08:11:30.619Z,-3.52
2023-03-11T08:13:58.169Z,-3.51
2023-03-11T08:16:26.724Z,-3.63
2023-03-11T08:18:54.360Z,-3.47
2023-03-11T08:21:24.771Z,-3.42
2023-03-11T08:23:51.925Z,-3.40
2023-03-11T08:26:21.725Z,-3.39
2023-03-11T08:28:49.756Z,-3.43
2023-03-11T08:31:18.796Z,-3.18
2023-03-11T08:33:46.488Z,-3.09
2023-03-11T08:36:13.525Z,-3.05
2023-03-11T08:38:42.999Z,-2.93
2023-03-11T08:41:09.778Z,-2.92
2023-03-11T08:43:36.596Z,-2.95
2023-03-11T08:46:08.738Z,-2.84
2023-03-11T08:48:38.005Z,-2.84
2023-03-11T08:51:14.517Z,-2.73
2023-03-11T08:53:41.528Z,-2.73
2023-03-11T08:56:08.896Z,-2.78
2023-03-11T08:58:35.784Z,-2.84
2023-03-11T09:01:03.317Z,-2.85
2023-03-11T09:03:36.598Z,-2.81
2023-03-11T09:06:06.379Z,-2.79
2023-03-11T09:08:33.627Z,-2.86
2023-03-11T09:11:00.595Z,-2.92
2023-03-11T09:13:27.757Z,-2.79
2023-03-11T09:15:54.809Z,-2.81
2023-03-11T09:18:21.655Z,-2.84
2023-03-11T09:20:48.639Z,-2.91
2023-03-11T09:23:17.597Z,-2.99
2023-03-11T09:25:44.932Z,-3.01
2023-03-11T09:28:11.732Z,-3.00
2023-03-11T09:30:38.636Z,-2.87
2023-03-11T09:33:05.364Z,-2.86
2023-03-11T09:35:32.400Z,-2.83
2023-03-11T09:37:59.115Z,-2.84
2023-03-11T09:40:28.362Z,-2.97
2023-03-11T09:43:15.587Z,-2.97
2023-03-11T09:45:53.478Z,-3.07
2023-03-11T09:48:32.879Z,-3.13
2023-03-11T09:51:20.712Z,-3.18
2023-03-11T09:53:55.900Z,-3.17
2023-03-11T09:56:24.334Z,-3.32
2023-03-11T09:59:06.540Z,-3.36
2023-03-11T10:01:42.939Z,-3.62
2023-03-11T10:04:27.975Z,-3.52
2023-03-11T10:06:56.105Z,-3.52
2023-03-11T10:09:48.298Z,-3.51
2023-03-11T10:12:57.341Z,-3.53
2023-03-11T10:15:48.409Z,-3.38
2023-03-11T10:18:42.176Z,-3.36
2023-03-11T10:21:20.419Z,-3.30
2023-03-11T10:24:17.745Z,-3.27
2023-03-11T10:26:52.836Z,-3.28
2023-03-11T10:29:38.540Z,-3.24
2023-03-11T10:32:07.929Z,-3.19
2023-03-11T10:34:39.869Z,-3.30
2023-03-11T10:37:15.177Z,-3.24
2023-03-11T10:39:42.099Z,-3.14
2023-03-11T10:42:22.622Z,-3.13
2023-03-11T10:44:51.108Z,-3.10
2023-03-11T10:47:24.875Z,-3.10
2023-03-11T10:49:54.857Z,-3.25
2023-03-11T10:52:21.676Z,-3.26
2023-03-11T10:55:00.831Z,-3.18
2023-03-11T10:57:36.505Z,-3.19
2023-03-11T11:00:17.407Z,-3.16
2023-03-11T11:03:01.631Z,-3.16
2023-03-11T11:05:28.572Z,-3.22
2023-03-11T11:08:17.300Z,-3.33
2023-03-11T11:10:56.159Z,-3.37
2023-03-11T11:13:25.718Z,-3.37
2023-03-11T11:16:06.368Z,-3.26
2023-03-11T11:18:49.164Z,-3.19
2023-03-11T11:21:37.496Z,-3.19
2023-03-11T11:24:28.008Z,-3.19
2023-03-11T11:27:17.927Z,-3.26
2023-03-11T11:29:44.884Z,-3.30
2023-03-11T11:32:25.438Z,-3.25
2023-03-11T11:34:58.218Z,-3.27
2023-03-11T11:37:31.794Z,-3.22
2023-03-11T11:40:11.234Z,-3.13
2023-03-11T11:42:44.244Z,-3.24
2023-03-11T11:45:17.537Z,-3.19
2023-03-11T11:47:51.131Z,-3.14
2023-03-11T11:50:42.156Z,-3.13
2023-03-11T11:53:23.834Z,-3.09
2023-03-11T11:55:54.093Z,-3.00
2023-03-11T11:58:22.104Z,-2.92
2023-03-11T12:00:51.881Z,-2.84
2023-03-11T12:03:38.780Z,-2.81
2023-03-11T12:06:32.650Z,-2.80
2023-03-11T12:09:14.836Z,-2.72
2023-03-11T12:11:49.676Z,-2.75
2023-03-11T12:14:24.511Z,-2.81
2023-03-11T12:17:01.902Z,-2.81
2023-03-11T12:19:39.236Z,-2.85
2023-03-11T12:22:27.351Z,-2.83
2023-03-11T12:25:22.479Z,-2.78
2023-03-11T12:28:24.719Z,-2.75
2023-03-11T12:30:56.750Z,-2.81
2023-03-11T12:33:41.707Z,-2.86
2023-03-11T12:36:24.069Z,-2.85
2023-03-11T12:38:52.165Z,-2.97
2023-03-11T12:41:42.150Z,-3.27
2023-03-11T12:44:17.744Z,-2.77
2023-03-11T12:46:59.550Z,-2.67
2023-03-11T12:49:44.098Z,-2.69
2023-03-11T12:52:13.810Z,-2.73
2023-03-11T12:54:42.044Z,-2.74
2023-03-11T12:57:17.664Z,-2.73
2023-03-11T13:00:18.536Z,-2.72
2023-03-11T13:03:06.963Z,-2.74
2023-03-11T13:06:10.584Z,-2.76
2023-03-11T13:09:04.298Z,-2.84
2023-03-11T13:11:37.055Z,-2.87
2023-03-11T13:14:33.871Z,-2.86
2023-03-11T13:17:24.774Z,-2.84
2023-03-11T13:19:56.784Z,-2.80
2023-03-11T13:22:44.977Z,-2.76
2023-03-11T13:25:33.105Z,-2.69
2023-03-11T13:28:22.063Z,-2.75
2023-03-11T13:30:59.156Z,-2.75
2023-03-11T13:33:36.818Z,-2.97
2023-03-11T13:36:10.185Z,-2.84
2023-03-11T13:39:12.691Z,-2.82
2023-03-11T13:41:44.218Z,-2.79
2023-03-11T13:44:35.130Z,-2.82
2023-03-11T13:47:09.029Z,-2.87
2023-03-11T13:49:45.359Z,-2.89
2023-03-11T13:52:22.474Z,-3.00
2023-03-11T13:54:58.233Z,-2.83
2023-03-11T13:57:33.740Z,-2.83
2023-03-11T14:00:17.739Z,-2.86
2023-03-11T14:03:09.771Z,-2.87
2023-03-11T14:05:39.700Z,-2.87
2023-03-11T14:08:20.785Z,-2.74
2023-03-11T14:11:12.722Z,-2.82
2023-03-11T14:13:45.080Z,-2.88
2023-03-11T14:16:20.519Z,-2.88
2023-03-11T14:19:19.106Z,-2.94
2023-03-11T14:21:51.678Z,-2.99
2023-03-11T14:24:29.368Z,-2.93
2023-03-11T14:27:00.209Z,-2.89
2023-03-11T14:29:40.711Z,-2.80
2023-03-11T14:32:23.950Z,-2.69
2023-03-11T14:34:50.733Z,-2.73
2023-03-11T14:37:38.621Z,-2.77
2023-03-11T14:40:26.382Z,-2.92
2023-03-11T14:42:56.035Z,-2.72
2023-03-11T14:45:29.639Z,-2.82
2023-03-11T14:48:15.270Z,-2.84
2023-03-11T14:50:45.040Z,-2.82
2023-03-11T14:53:30.330Z,-2.82
2023-03-11T14:56:05.448Z,-2.80
2023-03-11T14:58:49.167Z,-2.80
2023-03-11T15:01:22.832Z,-2.78
2023-03-11T15:04:02.837Z,-2.76
2023-03-11T15:06:31.148Z,-2.72
2023-03-11T15:08:58.028Z,-2.69
2023-03-11T15:11:28.514Z,-2.69
2023-03-11T15:14:17.125Z,-2.70
2023-03-11T15:16:43.992Z,-2.68
2023-03-11T15:19:33.315Z,-2.69
2023-03-11T15:22:27.253Z,-2.67
2023-03-11T15:24:57.367Z,-2.62
2023-03-11T15:27:32.107Z,-2.61
2023-03-11T15:30:00.512Z,-2.64
2023-03-11T15:32:27.400Z,-2.70
2023-03-11T15:35:17.238Z,-2.69
2023-03-11T15:37:45.367Z,-2.81
2023-03-11T15:40:21.398Z,-2.63
2023-03-11T15:42:49.644Z,-2.61
2023-03-11T15:45:19.260Z,-2.62
2023-03-11T15:47:47.944Z,-2.68
2023-03-11T15:50:24.451Z,-2.54
2023-03-11T15:52:53.334Z,-2.53
2023-03-11T15:55:20.334Z,-2.51
2023-03-11T15:57:48.750Z,-2.51
2023-03-11T16:00:22.277Z,-2.50
2023-03-11T16:02:50.719Z,-2.54
2023-03-11T16:05:23.075Z,-2.51
2023-03-11T16:07:50.602Z,-2.54
2023-03-11T16:10:21.380Z,-2.49
2023-03-11T16:12:48.997Z,-2.52
2023-03-11T16:15:25.071Z,-2.43
2023-03-11T16:17:53.380Z,-2.44
2023-03-11T16:20:22.389Z,-2.46
2023-03-11T16:22:51.839Z,-2.44
2023-03-11T16:25:23.791Z,-2.44
2023-03-11T16:27:53.151Z,-2.45
2023-03-11T16:30:24.735Z,-2.43
2023-03-11T16:32:51.562Z,-2.40
2023-03-11T16:35:19.180Z,-2.36
2023-03-11T16:37:46.386Z,-2.36
2023-03-11T16:40:16.697Z,-2.36
2023-03-11T16:42:45.607Z,-2.40
2023-03-11T16:45:14.527Z,-2.28
2023-03-11T16:47:42.207Z,-2.26
2023-03-11T16:50:10.472Z,-2.21
2023-03-11T16:52:37.353Z,-2.19
2023-03-11T16:55:04.658Z,-2.18
2023-03-11T16:57:31.552Z,-2.26
2023-03-11T16:59:58.392Z,-2.30
2023-03-11T17:02:25.574Z,-2.29
2023-03-11T17:04:52.405Z,-2.21
2023-03-11T17:07:19.332Z,-2.20
2023-03-11T17:09:46.183Z,-2.21
2023-03-11T17:12:15.782Z,-2.17
2023-03-11T17:14:42.705Z,-2.15
2023-03-11T17:17:09.628Z,-2.12
2023-03-11T17:19:36.532Z,-2.15
2023-03-11T17:22:03.834Z,-2.14
2023-03-11T17:24:30.941Z,-2.17
2023-03-11T17:26:57.686Z,-2.15
2023-03-11T17:29:24.600Z,-2.13
2023-03-11T17:31:51.749Z,-2.19
2023-03-11T17:34:18.563Z,-2.22
2023-03-11T17:36:45.360Z,-2.17
2023-03-11T17:39:12.213Z,-2.14
2023-03-11T17:41:39.200Z,-2.14
2023-03-11T17:44:06.987Z,-2.07
2023-03-11T17:46:36.377Z,-2.04
2023-03-11T17:49:03.262Z,-2.06
2023-03-11T17:51:30.054Z,-2.07
2023-03-11T17:53:57.242Z,-2.06
2023-03-11T17:56:24.728Z,-2.02
2023-03-11T17:58:51.882Z,-2.03
2023-03-11T18:01:28.459Z,-1.98
2023-03-11T18:03:55.501Z,-1.95
2023-03-11T18:06:22.825Z,-1.93
2023-03-11T18:08:50.367Z,-1.89
2023-03-11T18:11:20.396Z,-1.90
2023-03-11T18:13:47.304Z,-1.91
2023-03-11T18:16:17.105Z,-1.88
2023-03-11T18:18:44.321Z,-1.85
2023-03-11T18:21:14.530Z,-1.84
2023-03-11T18:23:41.817Z,-1.83
2023-03-11T18:26:11.298Z,-1.80
2023-03-11T18:28:38.163Z,-1.74
2023-03-11T18:31:09.831Z,-1.75
2023-03-11T18:33:37.602Z,-1.76
2023-03-11T18:36:32.244Z,-1.73
2023-03-11T18:39:00.709Z,-1.70
2023-03-11T18:41:31.075Z,-1.70
2023-03-11T18:43:58.831Z,-1.67
2023-03-11T18:46:28.493Z,-1.65
2023-03-11T18:48:59.897Z,-1.63
2023-03-11T18:51:28.603Z,-1.60
2023-03-11T18:53:55.352Z,-1.58
2023-03-11T18:56:22.168Z,-1.57
2023-03-11T18:58:48.916Z,-1.54
2023-03-11T19:01:19.235Z,-1.50
2023-03-11T19:03:51.061Z,-1.50
2023-03-11T19:06:18.154Z,-1.49
2023-03-11T19:08:45.196Z,-1.48
2023-03-11T19:11:18.350Z,-1.48
2023-03-11T19:13:47.529Z,-1.45
2023-03-11T19:16:17.655Z,-1.41
2023-03-11T19:18:45.261Z,-1.40
2023-03-11T19:21:14.114Z,-1.36
2023-03-11T19:23:40.943Z,-1.34
2023-03-11T19:26:08.250Z,-1.34
2023-03-11T19:28:35.465Z,-1.30
2023-03-11T19:31:02.749Z,-1.31
2023-03-11T19:33:29.919Z,-1.30
2023-03-11T19:36:00.042Z,-1.26
2023-03-11T19:38:28.755Z,-1.27
2023-03-11T19:41:07.768Z,-1.26
2023-03-11T19:43:35.888Z,-1.23
2023-03-11T19:46:06.476Z,-1.24
2023-03-11T19:48:33.319Z,-1.22
2023-03-11T19:51:00.531Z,-1.19
2023-03-11T19:53:27.415Z,-1.20
2023-03-11T19:55:56.852Z,-1.19
2023-03-11T19:58:27.917Z,-1.15
2023-03-11T20:00:56.511Z,-1.12
2023-03-11T20:03:23.517Z,-1.11
2023-03-11T20:05:52.713Z,-1.12
2023-03-11T20:08:21.236Z,-1.08
2023-03-11T20:10:50.555Z,-1.02
2023-03-11T20:13:20.241Z,-0.96
2023-03-11T20:15:47.166Z,-0.91
2023-03-11T20:18:14.150Z,-0.92
2023-03-11T20:20:43.397Z,-0.89
2023-03-11T20:23:11.530Z,-0.83
2023-03-11T20:25:40.125Z,-0.77
2023-03-11T20:28:07.324Z,-0.73
2023-03-11T20:30:34.273Z,-0.68
2023-03-11T20:33:01.264Z,-0.63
2023-03-11T20:35:28.135Z,-0.56
2023-03-11T20:37:55.044Z,-0.52
2023-03-11T20:40:22.331Z,-0.47
2023-03-11T20:42:49.255Z,-0.44
2023-03-11T20:45:21.434Z,-0.41
2023-03-11T20:47:49.705Z,-0.41
2023-03-11T20:50:17.292Z,-0.43
2023-03-11T20:52:44.168Z,-0.42
2023-03-11T20:55:11.733Z,-0.38
2023-03-11T20:57:40.114Z,-0.32
2023-03-11T21:00:11.693Z,-0.27
2023-03-11T21:02:40.579Z,-0.25
2023-03-11T21:05:08.887Z,-0.23
2023-03-11T21:07:36.430Z,-0.20
2023-03-11T21:10:07.120Z,-0.15
2023-03-11T21:12:34.046Z,-0.09
2023-03-11T21:15:00.924Z,-0.10
2023-03-11T21:17:27.743Z,-0.08
2023-03-11T21:19:54.687Z,-0.13
2023-03-11T21:22:21.565Z,-0.06
2023-03-11T21:24:53.028Z,-0.02
2023-03-11T21:27:26.210Z,0.02
2023-03-11T21:29:54.686Z,0.01
2023-03-11T21:32:22.751Z,0.02
2023-03-11T21:34:49.933Z,0.07
2023-03-11T21:37:16.977Z,0.11
2023-03-11T21:39:43.778Z,0.18
2023-03-11T21:42:10.552Z,0.19
2023-03-11T21:44:37.506Z,0.20
2023-03-11T21:47:05.663Z,0.24
2023-03-11T21:49:32.458Z,0.26
2023-03-11T21:52:01.991Z,0.27
2023-03-11T21:54:29.287Z,0.28
2023-03-11T21:56:56.250Z,0.28
2023-03-11T21:59:25.477Z,0.28
2023-03-11T22:01:52.992Z,0.31
2023-03-11T22:04:19.928Z,0.37
2023-03-11T22:06:46.816Z,0.39
2023-03-11T22:09:13.735Z,0.43
2023-03-11T22:11:40.859Z,0.48
2023-03-11T22:14:07.815Z,0.45
2023-03-11T22:16:34.655Z,0.50
2023-03-11T22:19:01.795Z,0.53
2023-03-11T22:21:28.584Z,0.55
2023-03-11T22:23:55.322Z,0.58
2023-03-11T22:26:22.001Z,0.59
2023-03-11T22:28:48.739Z,0.61
2023-03-11T22:31:18.647Z,0.63
2023-03-11T22:33:45.639Z,0.62
2023-03-11T22:36:12.696Z,0.66
2023-03-11T22:38:42.031Z,0.72
2023-03-11T22:41:09.018Z,0.56
2023-03-11T22:43:36.576Z,0.71
2023-03-11T22:46:04.821Z,0.76
2023-03-11T22:48:32.877Z,0.79
2023-03-11T22:50:59.633Z,0.80
2023-03-11T22:53:26.552Z,0.82
2023-03-11T22:55:53.523Z,0.80
2023-03-11T22:58:20.511Z,0.82
2023-03-11T23:00:47.621Z,0.86
2023-03-11T23:03:14.751Z,0.91
2023-03-11T23:05:45.992Z,0.94
2023-03-11T23:08:16.032Z,0.96
2023-03-11T23:10:45.359Z,0.94
2023-03-11T23:13:12.778Z,0.94
2023-03-11T23:15:46.983Z,0.98
2023-03-11T23:18:15.624Z,1.01
2023-03-11T23:20:43.637Z,1.04
2023-03-11T23:23:11.550Z,0.95
2023-03-11T23:25:39.352Z,1.10
2023-03-11T23:28:06.520Z,1.09
2023-03-11T23:30:33.428Z,0.98
2023-03-11T23:33:02.906Z,1.13
2023-03-11T23:35:31.332Z,1.14
2023-03-11T23:37:58.853Z,1.19
2023-03-11T23:40:26.164Z,1.20
2023-03-11T23:42:52.997Z,1.12
2023-03-11T23:45:19.816Z,1.25
2023-03-11T23:47:46.614Z,1.22
2023-03-11T23:50:13.437Z,1.22
2023-03-11T23:52:40.335Z,1.14
2023-03-11T23:55:07.792Z,1.27
2023-03-11T23:57:36.056Z,1.27
